Terminal Aerodrome Forecast
Issued by NWS Grand Rapids, MI

Current Version | Previous Version | Text Only | Print | Product List | Glossary On
Versions: 1 2 3 4 5 6 7 8 9 10 11 12 13 14 15 16 17 18 19
000
FTUS43 KGRR 230500
TAFGRR
TAF
KGRR 230540Z 2306/2406 21008KT 6SM BR OVC015
     FM231200 19010KT 3SM BR OVC006
     FM232000 14010KT 2SM BR OVC004=

USA.gov is the U.S. government's official web portal to all federal, state and local government web resources and services.